sensor_id;sensor_type;location;lat;lon;timestamp;pressure;altitude;pressure_sealevel;temperature;humidity
10881;BME280;5493;48.884;8.338;2022-12-01T00:01:16;100857.47;;;6.87;100.00
10881;BME280;5493;48.884;8.338;2022-12-01T00:03:43;100858.25;;;6.73;100.00
10881;BME280;5493;48.884;8.338;2022-12-01T00:06:11;100856.81;;;6.85;100.00
10881;BME280;5493;48.884;8.338;2022-12-01T00:08:39;100857.19;;;6.59;100.00
10881;BME280;5493;48.884;8.338;2022-12-01T00:11:26;100851.88;;;6.74;100.00
10881;BME280;5493;48.884;8.338;2022-12-01T00:13:52;100860.34;;;6.63;100.00
10881;BME280;5493;48.884;8.338;2022-12-01T00:16:20;100849.94;;;6.68;100.00
10881;BME280;5493;48.884;8.338;2022-12-01T00:18:50;100847.56;;;6.50;100.00
10881;BME280;5493;48.884;8.338;2022-12-01T00:21:19;100849.34;;;6.58;100.00
10881;BME280;5493;48.884;8.338;2022-12-01T00:23:47;100836.53;;;6.68;100.00
10881;BME280;5493;48.884;8.338;2022-12-01T00:26:15;100837.00;;;6.71;100.00
10881;BME280;5493;48.884;8.338;2022-12-01T00:28:42;100842.44;;;6.63;100.00
10881;BME280;5493;48.884;8.338;2022-12-01T00:31:10;100843.00;;;6.36;100.00
10881;BME280;5493;48.884;8.338;2022-12-01T00:33:39;100840.38;;;6.51;100.00
10881;BME280;5493;48.884;8.338;2022-12-01T00:36:06;100848.88;;;6.54;100.00
10881;BME280;5493;48.884;8.338;2022-12-01T00:38:33;100844.63;;;6.37;100.00
10881;BME280;5493;48.884;8.338;2022-12-01T00:41:00;100848.28;;;6.44;100.00
10881;BME280;5493;48.884;8.338;2022-12-01T00:43:26;100841.00;;;6.30;100.00
10881;BME280;5493;48.884;8.338;2022-12-01T00:45:53;100847.63;;;6.42;100.00
10881;BME280;5493;48.884;8.338;2022-12-01T00:48:20;100852.88;;;6.58;100.00
10881;BME280;5493;48.884;8.338;2022-12-01T00:50:49;100856.78;;;6.48;100.00
10881;BME280;5493;48.884;8.338;2022-12-01T00:53:17;100853.16;;;6.40;100.00
10881;BME280;5493;48.884;8.338;2022-12-01T00:55:43;100858.13;;;6.29;100.00
10881;BME280;5493;48.884;8.338;2022-12-01T00:58:10;100862.91;;;6.33;100.00
10881;BME280;5493;48.884;8.338;2022-12-01T01:00:37;100859.47;;;6.48;100.00
10881;BME280;5493;48.884;8.338;2022-12-01T01:03:04;100865.00;;;6.46;100.00
10881;BME280;5493;48.884;8.338;2022-12-01T01:05:34;100865.94;;;6.30;100.00
10881;BME280;5493;48.884;8.338;2022-12-01T01:08:05;100860.47;;;6.24;100.00
10881;BME280;5493;48.884;8.338;2022-12-01T01:10:32;100869.47;;;6.31;100.00
10881;BME280;5493;48.884;8.338;2022-12-01T01:12:58;100867.16;;;6.28;100.00
10881;BME280;5493;48.884;8.338;2022-12-01T01:15:25;100875.22;;;6.20;100.00
10881;BME280;5493;48.884;8.338;2022-12-01T01:17:51;100879.47;;;6.37;100.00
10881;BME280;5493;48.884;8.338;2022-12-01T01:20:18;100871.94;;;6.10;100.00
10881;BME280;5493;48.884;8.338;2022-12-01T01:22:44;100870.31;;;6.01;100.00
10881;BME280;5493;48.884;8.338;2022-12-01T01:25:12;100879.75;;;6.19;100.00
10881;BME280;5493;48.884;8.338;2022-12-01T01:27:39;100880.19;;;6.31;100.00
10881;BME280;5493;48.884;8.338;2022-12-01T01:30:07;100887.47;;;6.14;100.00
10881;BME280;5493;48.884;8.338;2022-12-01T01:32:33;100884.56;;;6.24;100.00
10881;BME280;5493;48.884;8.338;2022-12-01T01:35:00;100890.72;;;6.02;100.00
10881;BME280;5493;48.884;8.338;2022-12-01T01:37:27;100889.31;;;6.14;100.00
10881;BME280;5493;48.884;8.338;2022-12-01T01:39:53;100893.22;;;6.03;100.00
10881;BME280;5493;48.884;8.338;2022-12-01T01:42:21;100885.78;;;6.21;100.00
10881;BME280;5493;48.884;8.338;2022-12-01T01:44:50;100888.97;;;6.17;100.00
10881;BME280;5493;48.884;8.338;2022-12-01T01:47:19;100888.97;;;6.17;100.00
10881;BME280;5493;48.884;8.338;2022-12-01T01:49:47;100881.34;;;6.06;100.00
10881;BME280;5493;48.884;8.338;2022-12-01T01:52:14;100892.38;;;6.03;100.00
10881;BME280;5493;48.884;8.338;2022-12-01T01:54:43;100879.00;;;6.03;100.00
10881;BME280;5493;48.884;8.338;2022-12-01T01:57:16;100890.19;;;6.06;100.00
10881;BME280;5493;48.884;8.338;2022-12-01T01:59:49;100879.75;;;6.19;100.00
10881;BME280;5493;48.884;8.338;2022-12-01T02:02:17;100877.75;;;6.21;100.00
10881;BME280;5493;48.884;8.338;2022-12-01T02:04:46;100883.00;;;6.29;100.00
10881;BME280;5493;48.884;8.338;2022-12-01T02:07:17;100868.06;;;6.12;100.00
10881;BME280;5493;48.884;8.338;2022-12-01T02:09:44;100873.47;;;6.35;100.00
10881;BME280;5493;48.884;8.338;2022-12-01T02:12:20;100873.06;;;6.15;100.00
10881;BME280;5493;48.884;8.338;2022-12-01T02:15:07;100873.88;;;5.93;100.00
10881;BME280;5493;48.884;8.338;2022-12-01T02:17:40;100873.25;;;6.14;100.00
10881;BME280;5493;48.884;8.338;2022-12-01T02:20:39;100867.94;;;6.06;100.00
10881;BME280;5493;48.884;8.338;2022-12-01T02:23:34;100860.63;;;6.00;100.00
10881;BME280;5493;48.884;8.338;2022-12-01T02:26:20;100859.09;;;6.05;100.00
10881;BME280;5493;48.884;8.338;2022-12-01T02:29:13;100861.25;;;6.10;100.00
10881;BME280;5493;48.884;8.338;2022-12-01T02:31:56;100851.56;;;6.01;100.00
10881;BME280;5493;48.884;8.338;2022-12-01T02:34:27;100851.28;;;5.96;100.00
10881;BME280;5493;48.884;8.338;2022-12-01T02:36:57;100856.69;;;6.18;100.00
10881;BME280;5493;48.884;8.338;2022-12-01T02:39:31;100853.59;;;5.99;100.00
10881;BME280;5493;48.884;8.338;2022-12-01T02:42:03;100851.66;;;6.15;100.00
10881;BME280;5493;48.884;8.338;2022-12-01T02:44:34;100854.13;;;5.94;100.00
10881;BME280;5493;48.884;8.338;2022-12-01T02:47:08;100847.16;;;5.77;100.00
10881;BME280;5493;48.884;8.338;2022-12-01T02:49:40;100852.47;;;5.93;100.00
10881;BME280;5493;48.884;8.338;2022-12-01T02:52:10;100855.28;;;6.00;100.00
10881;BME280;5493;48.884;8.338;2022-12-01T02:54:38;100857.03;;;5.76;100.00
10881;BME280;5493;48.884;8.338;2022-12-01T02:57:07;100864.16;;;6.00;100.00
10881;BME280;5493;48.884;8.338;2022-12-01T02:59:34;100862.00;;;5.96;100.00
10881;BME280;5493;48.884;8.338;2022-12-01T03:02:09;100856.41;;;6.05;100.00
10881;BME280;5493;48.884;8.338;2022-12-01T03:04:55;100855.31;;;5.91;100.00
10881;BME280;5493;48.884;8.338;2022-12-01T03:07:38;100859.19;;;5.81;100.00
10881;BME280;5493;48.884;8.338;2022-12-01T03:10:14;100854.31;;;6.15;100.00
10881;BME280;5493;48.884;8.338;2022-12-01T03:12:49;100854.19;;;5.86;100.00
10881;BME280;5493;48.884;8.338;2022-12-01T03:15:27;100853.03;;;5.72;100.00
10881;BME280;5493;48.884;8.338;2022-12-01T03:18:01;100848.47;;;5.89;100.00
10881;BME280;5493;48.884;8.338;2022-12-01T03:20:34;100850.81;;;5.84;100.00
10881;BME280;5493;48.884;8.338;2022-12-01T03:23:06;100847.28;;;5.83;100.00
10881;BME280;5493;48.884;8.338;2022-12-01T03:25:34;100850.44;;;5.56;100.00
10881;BME280;5493;48.884;8.338;2022-12-01T03:28:02;100849.25;;;5.98;100.00
10881;BME280;5493;48.884;8.338;2022-12-01T03:30:31;100856.38;;;5.74;100.00
10881;BME280;5493;48.884;8.338;2022-12-01T03:33:02;100846.81;;;5.80;100.00
10881;BME280;5493;48.884;8.338;2022-12-01T03:35:35;100848.38;;;5.66;100.00
10881;BME280;5493;48.884;8.338;2022-12-01T03:38:11;100844.63;;;5.83;100.00
10881;BME280;5493;48.884;8.338;2022-12-01T03:40:40;100846.56;;;5.59;100.00
10881;BME280;5493;48.884;8.338;2022-12-01T03:43:09;100854.66;;;5.81;100.00
10881;BME280;5493;48.884;8.338;2022-12-01T03:45:42;100847.94;;;5.93;100.00
10881;BME280;5493;48.884;8.338;2022-12-01T03:48:13;100851.03;;;5.74;100.00
10881;BME280;5493;48.884;8.338;2022-12-01T03:50:48;100846.91;;;5.64;100.00
10881;BME280;5493;48.884;8.338;2022-12-01T03:53:22;100854.09;;;5.55;100.00
10881;BME280;5493;48.884;8.338;2022-12-01T03:55:57;100857.97;;;5.53;100.00
10881;BME280;5493;48.884;8.338;2022-12-01T03:58:30;100859.00;;;5.82;100.00
10881;BME280;5493;48.884;8.338;2022-12-01T04:01:00;100857.06;;;5.68;100.00
10881;BME280;5493;48.884;8.338;2022-12-01T04:03:29;100857.00;;;5.92;100.00
10881;BME280;5493;48.884;8.338;2022-12-01T04:05:55;100862.88;;;5.72;100.00
10881;BME280;5493;48.884;8.338;2022-12-01T04:08:23;100859.69;;;5.76;100.00
10881;BME280;5493;48.884;8.338;2022-12-01T04:10:49;100859.47;;;5.94;100.00
10881;BME280;5493;48.884;8.338;2022-12-01T04:13:16;100864.06;;;5.77;100.00
10881;BME280;5493;48.884;8.338;2022-12-01T04:15:47;100864.69;;;5.87;100.00
10881;BME280;5493;48.884;8.338;2022-12-01T04:18:14;100870.72;;;5.89;100.00
10881;BME280;5493;48.884;8.338;2022-12-01T04:20:44;100867.03;;;5.82;100.00
10881;BME280;5493;48.884;8.338;2022-12-01T04:23:10;100860.41;;;5.70;100.00
10881;BME280;5493;48.884;8.338;2022-12-01T04:25:58;100861.59;;;5.68;100.00
10881;BME280;5493;48.884;8.338;2022-12-01T04:28:25;100865.72;;;5.78;100.00
10881;BME280;5493;48.884;8.338;2022-12-01T04:30:52;100863.72;;;5.72;100.00
10881;BME280;5493;48.884;8.338;2022-12-01T04:33:19;100866.53;;;5.87;100.00
10881;BME280;5493;48.884;8.338;2022-12-01T04:35:55;100868.22;;;5.88;100.00
10881;BME280;5493;48.884;8.338;2022-12-01T04:38:21;100861.31;;;5.93;100.00
10881;BME280;5493;48.884;8.338;2022-12-01T04:40:48;100871.56;;;5.82;100.00
10881;BME280;5493;48.884;8.338;2022-12-01T04:43:14;100863.81;;;5.56;100.00
10881;BME280;5493;48.884;8.338;2022-12-01T04:45:41;100862.09;;;5.63;100.00
10881;BME280;5493;48.884;8.338;2022-12-01T04:48:07;100866.72;;;5.77;100.00
10881;BME280;5493;48.884;8.338;2022-12-01T04:50:34;100869.88;;;5.81;100.00
10881;BME280;5493;48.884;8.338;2022-12-01T04:53:03;100862.50;;;5.83;100.00
10881;BME280;5493;48.884;8.338;2022-12-01T04:55:29;100870.41;;;5.76;100.00
10881;BME280;5493;48.884;8.338;2022-12-01T04:57:56;100871.34;;;5.53;100.00
10881;BME280;5493;48.884;8.338;2022-12-01T05:00:25;100868.59;;;5.69;100.00
10881;BME280;5493;48.884;8.338;2022-12-01T05:02:52;100872.38;;;5.82;100.00
10881;BME280;5493;48.884;8.338;2022-12-01T05:05:18;100875.97;;;5.67;100.00
10881;BME280;5493;48.884;8.338;2022-12-01T05:07:45;100869.88;;;5.81;100.00
10881;BME280;5493;48.884;8.338;2022-12-01T05:10:13;100874.41;;;5.80;100.00
10881;BME280;5493;48.884;8.338;2022-12-01T05:12:39;100875.72;;;5.84;100.00
10881;BME280;5493;48.884;8.338;2022-12-01T05:15:07;100880.63;;;5.73;100.00
10881;BME280;5493;48.884;8.338;2022-12-01T05:17:33;100882.09;;;5.75;100.00
10881;BME280;5493;48.884;8.338;2022-12-01T05:20:00;100878.28;;;5.78;100.00
10881;BME280;5493;48.884;8.338;2022-12-01T05:22:44;100880.13;;;5.69;100.00
10881;BME280;5493;48.884;8.338;2022-12-01T05:25:12;100881.19;;;5.60;100.00
10881;BME280;5493;48.884;8.338;2022-12-01T05:27:39;100880.25;;;5.76;100.00
10881;BME280;5493;48.884;8.338;2022-12-01T05:30:06;100885.84;;;5.66;100.00
10881;BME280;5493;48.884;8.338;2022-12-01T05:32:33;100890.66;;;5.71;100.00
10881;BME280;5493;48.884;8.338;2022-12-01T05:34:59;100882.66;;;5.63;100.00
10881;BME280;5493;48.884;8.338;2022-12-01T05:37:26;100886.16;;;5.71;100.00
10881;BME280;5493;48.884;8.338;2022-12-01T05:39:56;100881.56;;;5.49;100.00
10881;BME280;5493;48.884;8.338;2022-12-01T05:42:24;100891.69;;;5.62;100.00
10881;BME280;5493;48.884;8.338;2022-12-01T05:44:50;100887.75;;;5.41;100.00
10881;BME280;5493;48.884;8.338;2022-12-01T05:47:18;100878.13;;;5.71;100.00
10881;BME280;5493;48.884;8.338;2022-12-01T05:49:44;100880.47;;;5.66;100.00
10881;BME280;5493;48.884;8.338;2022-12-01T05:52:11;100876.25;;;5.80;100.00
10881;BME280;5493;48.884;8.338;2022-12-01T05:54:38;100880.84;;;5.63;100.00
10881;BME280;5493;48.884;8.338;2022-12-01T05:57:05;100882.94;;;5.76;100.00
10881;BME280;5493;48.884;8.338;2022-12-01T05:59:33;100888.63;;;5.81;100.00
10881;BME280;5493;48.884;8.338;2022-12-01T06:01:59;100895.84;;;5.72;100.00
10881;BME280;5493;48.884;8.338;2022-12-01T06:04:26;100894.69;;;5.67;100.00
10881;BME280;5493;48.884;8.338;2022-12-01T06:06:52;100894.06;;;5.57;100.00
10881;BME280;5493;48.884;8.338;2022-12-01T06:09:19;100896.53;;;5.66;100.00
10881;BME280;5493;48.884;8.338;2022-12-01T06:11:45;100895.56;;;5.59;100.00
10881;BME280;5493;48.884;8.338;2022-12-01T06:14:12;100901.41;;;5.55;100.00
10881;BME280;5493;48.884;8.338;2022-12-01T06:16:40;100897.03;;;5.62;100.00
10881;BME280;5493;48.884;8.338;2022-12-01T06:19:06;100899.19;;;5.74;100.00
10881;BME280;5493;48.884;8.338;2022-12-01T06:21:33;100898.03;;;5.61;100.00
10881;BME280;5493;48.884;8.338;2022-12-01T06:23:59;100902.59;;;5.60;100.00
10881;BME280;5493;48.884;8.338;2022-12-01T06:26:26;100895.56;;;5.51;100.00
10881;BME280;5493;48.884;8.338;2022-12-01T06:28:53;100903.22;;;5.62;100.00
10881;BME280;5493;48.884;8.338;2022-12-01T06:31:19;100902.53;;;5.68;100.00
10881;BME280;5493;48.884;8.338;2022-12-01T06:33:47;100899.00;;;5.76;100.00
10881;BME280;5493;48.884;8.338;2022-12-01T06:36:14;100905.56;;;5.65;100.00
10881;BME280;5493;48.884;8.338;2022-12-01T06:38:40;100907.28;;;5.50;100.00
10881;BME280;5493;48.884;8.338;2022-12-01T06:41:07;100906.88;;;5.69;100.00
10881;BME280;5493;48.884;8.338;2022-12-01T06:43:34;100905.88;;;5.70;100.00
10881;BME280;5493;48.884;8.338;2022-12-01T06:46:01;100903.69;;;5.74;100.00
10881;BME280;5493;48.884;8.338;2022-12-01T06:48:28;100912.75;;;5.65;100.00
10881;BME280;5493;48.884;8.338;2022-12-01T06:50:57;100919.72;;;5.82;100.00
10881;BME280;5493;48.884;8.338;2022-12-01T06:53:23;100920.22;;;5.85;100.00
10881;BME280;5493;48.884;8.338;2022-12-01T06:55:51;100919.53;;;5.83;100.00
10881;BME280;5493;48.884;8.338;2022-12-01T06:58:18;100915.03;;;5.92;100.00
10881;BME280;5493;48.884;8.338;2022-12-01T07:00:44;100918.84;;;5.98;100.00
10881;BME280;5493;48.884;8.338;2022-12-01T07:03:11;100923.66;;;6.10;100.00
10881;BME280;5493;48.884;8.338;2022-12-01T07:05:37;100919.22;;;5.86;100.00
10881;BME280;5493;48.884;8.338;2022-12-01T07:08:05;100914.69;;;5.95;100.00
10881;BME280;5493;48.884;8.338;2022-12-01T07:10:32;100923.56;;;5.87;100.00
10881;BME280;5493;48.884;8.338;2022-12-01T07:12:58;100925.41;;;5.87;100.00
10881;BME280;5493;48.884;8.338;2022-12-01T07:15:25;100927.00;;;6.04;100.00
10881;BME280;5493;48.884;8.338;2022-12-01T07:17:53;100933.06;;;5.98;100.00
10881;BME280;5493;48.884;8.338;2022-12-01T07:20:19;100926.19;;;6.04;100.00
10881;BME280;5493;48.884;8.338;2022-12-01T07:22:46;100930.09;;;6.24;100.00
10881;BME280;5493;48.884;8.338;2022-12-01T07:25:14;100928.53;;;6.29;100.00
10881;BME280;5493;48.884;8.338;2022-12-01T07:27:40;100934.00;;;6.13;100.00
10881;BME280;5493;48.884;8.338;2022-12-01T07:30:08;100933.03;;;6.06;100.00
10881;BME280;5493;48.884;8.338;2022-12-01T07:32:34;100933.56;;;6.32;100.00
10881;BME280;5493;48.884;8.338;2022-12-01T07:35:01;100930.19;;;6.08;100.00
10881;BME280;5493;48.884;8.338;2022-12-01T07:37:28;100938.53;;;6.05;100.00
10881;BME280;5493;48.884;8.338;2022-12-01T07:39:54;100941.19;;;6.13;100.00
10881;BME280;5493;48.884;8.338;2022-12-01T07:42:22;100944.13;;;5.95;100.00
10881;BME280;5493;48.884;8.338;2022-12-01T07:44:48;100947.63;;;5.96;100.00
10881;BME280;5493;48.884;8.338;2022-12-01T07:47:15;100948.97;;;5.91;100.00
10881;BME280;5493;48.884;8.338;2022-12-01T07:49:42;100953.97;;;6.03;100.00
10881;BME280;5493;48.884;8.338;2022-12-01T07:52:08;100955.03;;;6.24;100.00
10881;BME280;5493;48.884;8.338;2022-12-01T07:54:35;100952.97;;;6.04;100.00
10881;BME280;5493;48.884;8.338;2022-12-01T07:57:01;100959.09;;;6.12;100.00
10881;BME280;5493;48.884;8.338;2022-12-01T07:59:29;100957.94;;;6.15;100.00
10881;BME280;5493;48.884;8.338;2022-12-01T08:01:56;100963.31;;;6.07;100.00
10881;BME280;5493;48.884;8.338;2022-12-01T08:04:22;100964.38;;;6.28;100.00
10881;BME280;5493;48.884;8.338;2022-12-01T08:06:49;100962.00;;;6.03;100.00
10881;BME280;5493;48.884;8.338;2022-12-01T08:09:15;100957.88;;;6.23;100.00
10881;BME280;5493;48.884;8.338;2022-12-01T08:11:42;100952.38;;;6.16;100.00
10881;BME280;5493;48.884;8.338;2022-12-01T08:14:08;100959.81;;;5.98;100.00
10881;BME280;5493;48.884;8.338;2022-12-01T08:16:36;100956.78;;;6.01;100.00
10881;BME280;5493;48.884;8.338;2022-12-01T08:19:03;100963.56;;;6.20;100.00
10881;BME280;5493;48.884;8.338;2022-12-01T08:21:29;100958.41;;;6.18;100.00
10881;BME280;5493;48.884;8.338;2022-12-01T08:23:56;100960.25;;;6.18;100.00
10881;BME280;5493;48.884;8.338;2022-12-01T08:26:24;100963.47;;;6.05;100.00
10881;BME280;5493;48.884;8.338;2022-12-01T08:28:51;100967.00;;;6.06;100.00
10881;BME280;5493;48.884;8.338;2022-12-01T08:31:20;100966.56;;;6.25;100.00
10881;BME280;5493;48.884;8.338;2022-12-01T08:33:49;100969.66;;;6.06;100.00
10881;BME280;5493;48.884;8.338;2022-12-01T08:36:16;100977.34;;;6.09;100.00
10881;BME280;5493;48.884;8.338;2022-12-01T08:38:43;100972.31;;;6.14;100.00
10881;BME280;5493;48.884;8.338;2022-12-01T08:41:11;100970.41;;;6.22;100.00
10881;BME280;5493;48.884;8.338;2022-12-01T08:43:38;100974.75;;;6.31;100.00
10881;BME280;5493;48.884;8.338;2022-12-01T08:46:07;100973.16;;;6.14;100.00
10881;BME280;5493;48.884;8.338;2022-12-01T08:48:34;100974.34;;;6.42;100.00
10881;BME280;5493;48.884;8.338;2022-12-01T08:51:03;100975.22;;;6.35;100.00
10881;BME280;5493;48.884;8.338;2022-12-01T08:53:30;100987.22;;;6.47;100.00
10881;BME280;5493;48.884;8.338;2022-12-01T08:55:59;100986.25;;;6.40;100.00
10881;BME280;5493;48.884;8.338;2022-12-01T08:58:26;100981.19;;;6.14;100.00
10881;BME280;5493;48.884;8.338;2022-12-01T09:00:53;100982.66;;;6.25;100.00
10881;BME280;5493;48.884;8.338;2022-12-01T09:03:25;100982.81;;;6.23;100.00
10881;BME280;5493;48.884;8.338;2022-12-01T09:05:52;100981.56;;;6.03;100.00
10881;BME280;5493;48.884;8.338;2022-12-01T09:08:20;100988.19;;;6.15;100.00
10881;BME280;5493;48.884;8.338;2022-12-01T09:11:00;100995.91;;;6.18;100.00
10881;BME280;5493;48.884;8.338;2022-12-01T09:13:28;100994.72;;;6.13;100.00
10881;BME280;5493;48.884;8.338;2022-12-01T09:15:56;100986.97;;;6.26;100.00
10881;BME280;5493;48.884;8.338;2022-12-01T09:18:23;100974.63;;;6.17;100.00
10881;BME280;5493;48.884;8.338;2022-12-01T09:20:50;100987.03;;;6.18;100.00
10881;BME280;5493;48.884;8.338;2022-12-01T09:23:17;100988.06;;;6.09;100.00
10881;BME280;5493;48.884;8.338;2022-12-01T09:25:45;100992.53;;;6.16;100.00
10881;BME280;5493;48.884;8.338;2022-12-01T09:28:12;100990.84;;;6.23;100.00
10881;BME280;5493;48.884;8.338;2022-12-01T09:30:39;100994.47;;;5.75;100.00
10881;BME280;5493;48.884;8.338;2022-12-01T09:33:05;100985.25;;;5.94;100.00
10881;BME280;5493;48.884;8.338;2022-12-01T09:35:32;100996.91;;;6.09;100.00
10881;BME280;5493;48.884;8.338;2022-12-01T09:37:59;100988.75;;;6.03;100.00
10881;BME280;5493;48.884;8.338;2022-12-01T09:40:30;100990.44;;;6.04;100.00
10881;BME280;5493;48.884;8.338;2022-12-01T09:42:59;101001.47;;;6.01;100.00
10881;BME280;5493;48.884;8.338;2022-12-01T09:45:30;100992.13;;;6.35;100.00
10881;BME280;5493;48.884;8.338;2022-12-01T09:47:58;100996.38;;;6.53;100.00
10881;BME280;5493;48.884;8.338;2022-12-01T09:50:26;100984.25;;;6.34;100.00
10881;BME280;5493;48.884;8.338;2022-12-01T09:52:57;100990.41;;;6.42;100.00
10881;BME280;5493;48.884;8.338;2022-12-01T09:55:25;100986.69;;;6.13;100.00
10881;BME280;5493;48.884;8.338;2022-12-01T09:57:53;101001.13;;;6.04;100.00
10881;BME280;5493;48.884;8.338;2022-12-01T10:00:23;100984.72;;;6.46;100.00
10881;BME280;5493;48.884;8.338;2022-12-01T10:02:53;100987.53;;;6.44;100.00
10881;BME280;5493;48.884;8.338;2022-12-01T10:05:23;100981.63;;;6.26;100.00
10881;BME280;5493;48.884;8.338;2022-12-01T10:07:54;100974.72;;;6.39;100.00
10881;BME280;5493;48.884;8.338;2022-12-01T10:10:26;100970.34;;;6.38;100.00
10881;BME280;5493;48.884;8.338;2022-12-01T10:12:53;100970.19;;;6.40;100.00
10881;BME280;5493;48.884;8.338;2022-12-01T10:15:34;100965.16;;;6.37;100.00
10881;BME280;5493;48.884;8.338;2022-12-01T10:18:15;100967.22;;;6.58;100.00
10881;BME280;5493;48.884;8.338;2022-12-01T10:20:50;100961.00;;;6.65;100.00
10881;BME280;5493;48.884;8.338;2022-12-01T10:23:36;100961.84;;;6.35;100.00
10881;BME280;5493;48.884;8.338;2022-12-01T10:26:09;100955.88;;;6.78;100.00
10881;BME280;5493;48.884;8.338;2022-12-01T10:28:52;100952.19;;;6.79;100.00
10881;BME280;5493;48.884;8.338;2022-12-01T10:31:30;100952.19;;;6.79;100.00
10881;BME280;5493;48.884;8.338;2022-12-01T10:34:01;100951.69;;;6.99;100.00
10881;BME280;5493;48.884;8.338;2022-12-01T10:36:29;100944.06;;;6.65;100.00
10881;BME280;5493;48.884;8.338;2022-12-01T10:38:57;100942.16;;;6.51;100.00
10881;BME280;5493;48.884;8.338;2022-12-01T10:41:25;100939.88;;;6.62;100.00
10881;BME280;5493;48.884;8.338;2022-12-01T10:43:56;100945.25;;;6.62;100.00
10881;BME280;5493;48.884;8.338;2022-12-01T10:46:28;100937.22;;;6.39;100.00
10881;BME280;5493;48.884;8.338;2022-12-01T10:49:06;100938.34;;;6.68;100.00
10881;BME280;5493;48.884;8.338;2022-12-01T10:51:46;100931.84;;;6.62;100.00
10881;BME280;5493;48.884;8.338;2022-12-01T10:54:13;100937.13;;;6.48;100.00
10881;BME280;5493;48.884;8.338;2022-12-01T10:56:40;100928.81;;;6.42;100.00
10881;BME280;5493;48.884;8.338;2022-12-01T10:59:21;100927.81;;;6.43;100.00
10881;BME280;5493;48.884;8.338;2022-12-01T11:01:50;100931.38;;;6.59;100.00
10881;BME280;5493;48.884;8.338;2022-12-01T11:04:32;100922.34;;;6.82;100.00
10881;BME280;5493;48.884;8.338;2022-12-01T11:07:00;100919.03;;;6.95;100.00
10881;BME280;5493;48.884;8.338;2022-12-01T11:09:28;100921.09;;;6.70;100.00
10881;BME280;5493;48.884;8.338;2022-12-01T11:11:56;100914.41;;;6.89;100.00
10881;BME280;5493;48.884;8.338;2022-12-01T11:14:29;100909.78;;;6.83;100.00
10881;BME280;5493;48.884;8.338;2022-12-01T11:17:14;100907.03;;;7.06;100.00
10881;BME280;5493;48.884;8.338;2022-12-01T11:19:41;100909.09;;;7.04;100.00
10881;BME280;5493;48.884;8.338;2022-12-01T11:22:18;100907.69;;;6.93;100.00
10881;BME280;5493;48.884;8.338;2022-12-01T11:24:56;100907.81;;;7.14;100.00
10881;BME280;5493;48.884;8.338;2022-12-01T11:27:24;100895.34;;;7.21;100.00
10881;BME280;5493;48.884;8.338;2022-12-01T11:29:54;100891.81;;;7.21;100.00
10881;BME280;5493;48.884;8.338;2022-12-01T11:32:24;100895.28;;;7.29;100.00
10881;BME280;5493;48.884;8.338;2022-12-01T11:34:54;100889.69;;;7.16;100.00
10881;BME280;5493;48.884;8.338;2022-12-01T11:37:23;100893.94;;;7.11;100.00
10881;BME280;5493;48.884;8.338;2022-12-01T11:39:51;100902.06;;;7.03;100.00
10881;BME280;5493;48.884;8.338;2022-12-01T11:42:22;100897.25;;;7.13;100.00
10881;BME280;5493;48.884;8.338;2022-12-01T11:44:51;100899.16;;;6.89;100.00
10881;BME280;5493;48.884;8.338;2022-12-01T11:47:20;100895.59;;;6.97;100.00
10881;BME280;5493;48.884;8.338;2022-12-01T11:49:53;100896.50;;;6.67;100.00
10881;BME280;5493;48.884;8.338;2022-12-01T11:52:23;100894.25;;;7.16;100.00
10881;BME280;5493;48.884;8.338;2022-12-01T11:54:56;100896.72;;;7.17;100.00
10881;BME280;5493;48.884;8.338;2022-12-01T11:57:24;100884.88;;;7.12;100.00
10881;BME280;5493;48.884;8.338;2022-12-01T11:59:51;100884.28;;;6.87;100.00
10881;BME280;5493;48.884;8.338;2022-12-01T12:02:24;100879.06;;;7.08;100.00
10881;BME280;5493;48.884;8.338;2022-12-01T12:05:14;100887.50;;;6.82;100.00
10881;BME280;5493;48.884;8.338;2022-12-01T12:07:50;100875.03;;;6.89;100.00
10881;BME280;5493;48.884;8.338;2022-12-01T12:10:32;100883.88;;;6.75;100.00
10881;BME280;5493;48.884;8.338;2022-12-01T12:13:16;100883.69;;;6.77;100.00
10881;BME280;5493;48.884;8.338;2022-12-01T12:15:50;100885.94;;;6.88;100.00
10881;BME280;5493;48.884;8.338;2022-12-01T12:18:35;100883.41;;;6.72;100.00
10881;BME280;5493;48.884;8.338;2022-12-01T12:21:14;100888.44;;;6.67;100.00
10881;BME280;5493;48.884;8.338;2022-12-01T12:24:09;100892.13;;;6.66;100.00
10881;BME280;5493;48.884;8.338;2022-12-01T12:26:41;100879.13;;;7.00;100.00
10881;BME280;5493;48.884;8.338;2022-12-01T12:29:26;100888.34;;;6.83;100.00
10881;BME280;5493;48.884;8.338;2022-12-01T12:32:07;100879.03;;;6.93;100.00
10881;BME280;5493;48.884;8.338;2022-12-01T12:34:46;100876.41;;;6.85;100.00
10881;BME280;5493;48.884;8.338;2022-12-01T12:37:19;100874.78;;;6.99;100.00
10881;BME280;5493;48.884;8.338;2022-12-01T12:40:08;100879.69;;;7.10;100.00
10881;BME280;5493;48.884;8.338;2022-12-01T12:42:49;100869.44;;;7.14;100.00
10881;BME280;5493;48.884;8.338;2022-12-01T12:45:25;100872.56;;;7.03;100.00
10881;BME280;5493;48.884;8.338;2022-12-01T12:48:09;100875.34;;;7.09;100.00
10881;BME280;5493;48.884;8.338;2022-12-01T12:50:44;100875.31;;;6.94;100.00
10881;BME280;5493;48.884;8.338;2022-12-01T12:53:19;100876.78;;;6.82;100.00
10881;BME280;5493;48.884;8.338;2022-12-01T12:55:49;100874.66;;;7.30;100.00
10881;BME280;5493;48.884;8.338;2022-12-01T12:58:20;100873.94;;;6.99;100.00
10881;BME280;5493;48.884;8.338;2022-12-01T13:00:49;100866.22;;;7.18;100.00
10881;BME280;5493;48.884;8.338;2022-12-01T13:03:21;100875.31;;;6.94;100.00
10881;BME280;5493;48.884;8.338;2022-12-01T13:05:53;100869.00;;;6.87;100.00
10881;BME280;5493;48.884;8.338;2022-12-01T13:08:27;100867.41;;;7.01;100.00
10881;BME280;5493;48.884;8.338;2022-12-01T13:10:58;100865.34;;;7.03;100.00
10881;BME280;5493;48.884;8.338;2022-12-01T13:13:31;100872.56;;;7.03;100.00
10881;BME280;5493;48.884;8.338;2022-12-01T13:15:59;100873.88;;;7.21;100.00